Amargosa Valley, Nevada Weather observations

Data are for observation ending at time listed.
 Day   Time    Ave.   Ave.  Ave.  Vector   Max.   Stn.    Total    Solar   Ave.  
  of    of     Air    Rel.  Wind   Wind    Wind   Baro.  Precip.   Rad.    Soil  
Year   Day     Temp.  Hum.  Speed  Dir.    Gust   Pres.                    Temp. 
2017   (PST)    F      %     mph   deg.    mph     mb.     in.     W/m2     F   
------------------------------------------------------------------------------
  16   23:50   38.3    41    6.7   305     11.5   934.0    0.00       0    50.7
  17    0:00   38.3    40    5.2   307     11.0   934.0    0.00       0    50.6
  17    0:10   39.0    37    5.7   310     10.2   933.9    0.00       0    50.5
  17    0:20   39.9    35    9.4   305     14.2   933.9    0.00       0    50.4
  17    0:30   39.6    36    8.1   306     12.7   933.9    0.00       0    50.3
  17    0:40   39.3    37    5.2   313     10.4   933.9    0.00       0    50.2
  17    0:50   38.7    38    3.4   314      6.2   933.9    0.00       0    50.1
  17    1:00   38.2    40    4.1   316      7.9   933.9    0.00       0    50.1
  17    1:10   38.3    39    4.4   316      8.9   934.0    0.00       0    50.0
  17    1:20   38.4    38    3.6   322      9.4   934.1    0.00       0    49.9
  17    1:30   39.0    37    3.3   327      7.8   934.1    0.00       0    49.8
  17    1:40   38.7    38    2.8   321      5.9   934.2    0.00       0    49.7
  17    1:50   38.1    40    2.4   325      6.6   934.2    0.00       0    49.6
  17    2:00   38.4    39    2.3   328      6.8   934.2    0.00       0    49.5
  17    2:10   38.8    38    3.4   322      7.5   934.2    0.00       0    49.4
  17    2:20   38.3    38    4.0   316      8.6   934.2    0.00       0    49.4
  17    2:30   38.3    38    4.3   317      9.3   934.2    0.00       0    49.3
  17    2:40   38.2    38    4.4   312      7.4   934.2    0.00       0    49.2
  17    2:50   37.3    40    4.1   310      8.5   934.1    0.00       0    49.1
  17    3:00   37.4    40    4.9   310      9.9   934.1    0.00       0    49.0
  17    3:10   37.1    41    4.4   314      9.6   934.0    0.00       0    49.0
  17    3:20   37.0    41    3.3   317      6.4   933.9    0.00       0    48.9
  17    3:30   36.5    42    2.9   317      5.6   933.7    0.00       0    48.8
  17    3:40   35.7    44    0.8   306      3.7   933.6    0.00       0    48.7
  17    3:50   36.2    42    3.1   306      4.8   933.4    0.00       0    48.6
  17    4:00   35.8    44    2.3   304      5.0   933.3    0.00       0    48.5
  17    4:10   35.1    45    2.6   305      5.3   933.2    0.00       0    48.4
  17    4:20   34.8    45    4.1   311      7.9   933.0    0.00       0    48.4
  17    4:30   35.3    44    4.8   316      8.6   933.0    0.00       0    48.3
  17    4:40   35.2    44    3.7   318      6.6   933.1    0.00       0    48.2
  17    4:50   33.7    48    3.7   311      6.1   933.2    0.00       0    48.1
  17    5:00   32.6    50    1.9   315      4.1   933.1    0.00       0    48.0
  17    5:10   31.5    52    1.9   323      4.4   933.1    0.00       0    48.0
  17    5:20   32.5    49    2.2   321      5.0   933.2    0.00       0    47.9
  17    5:30   32.8    49    3.2   321      6.0   933.2    0.00       0    47.8
  17    5:40   33.0    48    3.2   322      7.4   933.3    0.00       0    47.7
  17    5:50   33.7    47    3.6   324      6.9   933.5    0.00       0    47.6
  17    6:00   34.6    46    2.4   330      6.1   933.7    0.00       0    47.5
  17    6:10   34.9    46    2.0   329      4.2   933.8    0.00       0    47.4
  17    6:20   34.7    46    2.7   324      6.9   933.9    0.00       0    47.4
  17    6:30   34.5    46    3.4   318      6.5   934.0    0.00       0    47.3
  17    6:40   34.2    46    3.8   315      6.1   934.1    0.00       0    47.2
  17    6:50   34.5    46    2.9   317      6.2   934.2    0.00       0    47.1
  17    7:00   34.0    47    4.3   314     10.1   934.2    0.00       4    47.0
  17    7:10   33.2    48    3.5   318      7.2   934.3    0.00       9    47.0
  17    7:20   33.3    48    1.7   328      3.7   934.5    0.00      35    46.9
  17    7:30   34.8    45    2.1   327      5.2   934.6    0.00      61    46.7
  17    7:40   35.7    43    2.9   328      6.6   934.6    0.00      93    46.6
  17    7:50   36.6    41    3.2   326      7.1   934.9    0.00     132    46.6
  17    8:00   37.8    39    1.4   327      3.7   935.1    0.00     164    46.5
  17    8:10   38.3    38    0.4   344      2.0   935.2    0.00     192    46.4
  17    8:20   37.5    40    0.3   359      1.7   935.3    0.00     221    46.3
  17    8:30   38.4    39    0.9   325      3.4   935.5    0.00     248    46.2
  17    8:40   38.7    36    1.7   315      4.1   935.6    0.00     273    46.2
  17    8:50   40.4    34    1.5   315      4.2   935.7    0.00      52    46.1
  17    9:00   41.8    32    1.4   316      4.8   935.8    0.00     263    46.1
  17    9:10   43.5    31    1.2   319      3.8   936.0    0.00     358    46.1
  17    9:20   43.6    30    2.5   308      4.8   936.2    0.00     384    46.0
  17    9:30   44.5    29    2.6   308      7.4   936.2    0.00     409    46.0
  17    9:40   45.1    28    4.1   306      9.3   936.2    0.00     432    46.0
  17    9:50   45.0    29    5.5   307      9.4   936.2    0.00     454    46.0
  17   10:00   45.6    28    5.0   305      8.8   936.3    0.00     475    46.0
  17   10:10   46.7    27    2.2   295      8.4   936.2    0.00     494    46.0
  17   10:20   48.3    25    1.9   315      6.0   936.3    0.00     512    46.0
  17   10:30   49.1    25    4.0   314     10.5   936.2    0.00     529    46.1
  17   10:40   48.5    25    6.2   308     14.0   936.1    0.00     544    46.1
  17   10:50   48.9    24    5.5   308     11.9   936.0    0.00     557    46.2
  17   11:00   50.0    23    3.1   311      7.9   935.9    0.00     568    46.3
  17   11:10   51.2    22    1.7   317      5.6   935.8    0.00     578    46.4
  17   11:20   51.3    21    3.6   307      8.5   935.5    0.00     587    46.5
  17   11:30   52.2    20    1.2     9      4.5   935.3    0.00     592    46.6
  17   11:40   52.9    19    0.9    23      3.7   935.1    0.00     598    46.7
  17   11:50   53.3    19    1.4   342      4.5   934.9    0.00     602    46.8
  17   12:00   53.4    18    1.5    55      4.5   934.7    0.00     605    47.0
  17   12:10   52.6    18    2.6    71      5.3   934.5    0.00     603    47.1
  17   12:20   53.7    18    0.6   314      3.3   934.2    0.00     597    47.2
  17   12:30   53.7    18    1.4   225      3.7   934.0    0.00     591    47.4
  17   12:40   54.4    18    1.4   296      4.5   933.9    0.00     591    47.6
  17   12:50   54.5    18    2.6   307      5.8   933.7    0.00     585    47.8
  17   13:00   55.6    17    0.9   294      4.2   933.6    0.00     572    48.0
  17   13:10   55.6    16    2.3   299      5.4   933.4    0.00     564    48.3
  17   13:20   56.3    16    1.1   304      4.3   933.2    0.00     550    48.5
  17   13:30   57.1    16    2.3   185      4.8   933.2    0.00     534    48.8
  17   13:40   56.8    16    2.3   201      4.7   933.3    0.00     516    49.0
  17   13:50   57.5    16    1.6   252      6.8   933.3    0.00     504    49.3
  17   14:00   57.9    16    0.7   247      2.3   933.3    0.00     482    49.6
  17   14:10   57.9    16    1.3   328      4.4   933.3    0.00     466    49.9
  17   14:20   58.8    15    0.7    49      2.9   933.4    0.00     442    50.1
  17   14:30   58.2    15    2.3   247      7.2   933.5    0.00     421    50.4
  17   14:40   57.9    16    2.5   263      6.9   933.6    0.00     396    50.7
  17   14:50   58.4    15    1.5   270      4.6   933.7    0.00     370    51.0
  17   15:00   58.3    15    2.8   306      7.2   933.6    0.00     349    51.3
  17   15:10   57.6    16    3.4   307      7.8   933.7    0.00     322    51.5
  17   15:20   58.7    15    1.5   291      6.6   933.6    0.00     291    51.8
  17   15:30   58.6    15    2.5   298      7.4   933.5    0.00     264    52.0
  17   15:40   57.3    15    3.6   306      6.8   933.6    0.00     238    52.3
  17   15:50   58.2    15    1.7   306      3.7   933.6    0.00     209    52.5
  17   16:00   58.2    15    2.3   306      5.6   933.7    0.00     178    52.7
  17   16:10   57.7    15    2.9   309      6.8   933.7    0.00     152    52.9
  17   16:20   57.8    16    1.7   316      3.5   933.9    0.00     116    53.0
  17   16:30   57.3    16    2.1   307      4.4   933.9    0.00      64    53.2
  17   16:40   55.6    17    3.4   308      7.7   934.0    0.00      11    53.4
  17   16:50   54.7    18    1.7   306      2.9   933.9    0.00       5    53.5
  17   17:00   53.9    18    0.3   306      0.9   933.8    0.00       3    53.6
  17   17:10   52.8    20    0.0     0      0.0   933.7    0.00       1    53.7
  17   17:20   51.5    21    0.0     0      0.0   933.5    0.00       0    53.8
  17   17:30   50.9    22    0.0   315      0.4   933.4    0.00       0    53.8
  17   17:40   48.9    25    0.8   132      3.3   933.3    0.00       0    53.8
  17   17:50   46.8    28    3.5   108      4.7   933.3    0.00       0    53.9
  17   18:00   46.5    28    2.4   124      3.5   933.4    0.00       0    53.9
  17   18:10   46.2    29    1.2   126      2.4   933.4    0.00       0    53.9
  17   18:20   45.9    29    0.9   104      2.0   933.5    0.00       0    53.8
  17   18:30   46.0    29    1.7    91      2.8   933.5    0.00       0    53.8
  17   18:40   46.0    29    3.2    82      4.7   933.4    0.00       0    53.7
  17   18:50   45.4    30    3.3    88      4.1   933.5    0.00       0    53.7
  17   19:00   45.0    32    2.8    89      3.7   933.5    0.00       0    53.6
  17   19:10   45.1    32    3.4    93      4.9   933.5    0.00       0    53.6
  17   19:20   45.5    32    2.7    94      4.2   933.6    0.00       0    53.5
  17   19:30   45.3    33    2.9    89      3.7   933.6    0.00       0    53.4
  17   19:40   46.1    32    3.3    81      4.6   933.7    0.00       0    53.3
  17   19:50   46.3    33    3.4    78      5.3   933.8    0.00       0    53.3
  17   20:00   41.7    39    1.3    38      4.0   933.8    0.00       0    53.2
  17   20:10   38.4    44    1.5    31      3.4   933.9    0.00       0    53.1
  17   20:20   38.1    43    1.7    32      3.4   933.9    0.00       0    53.0
  17   20:30   37.5    44    2.4    35      4.9   933.9    0.00       0    52.9
  17   20:40   37.4    44    2.2    33      5.1   933.9    0.00       0    52.8
  17   20:50   37.2    44    1.6    30      4.0   934.0    0.00       0    52.7
  17   21:00   37.2    44    1.8    30      4.2   934.1    0.00       0    52.6
  17   21:10   37.1    45    0.3    19      1.5   934.1    0.00       0    52.5
  17   21:20   36.8    46    1.5    39      3.7   934.0    0.00       0    52.4
  17   21:30   37.8    43    2.3    38      7.1   934.0    0.00       0    52.3
  17   21:40   38.8    42    1.3    32      3.1   933.9    0.00       0    52.2
  17   21:50   38.4    43    0.9    33      5.0   934.0    0.00       0    52.1
  17   22:00   37.6    45    0.1    26      1.1   934.0    0.00       0    52.0
  17   22:10   36.7    47    0.6   332      3.1   934.1    0.00       0    51.9
  17   22:20   35.9    48    1.4   316      3.5   934.2    0.00       0    51.8
  17   22:30   35.2    50    2.0   316      4.9   934.2    0.00       0    51.6
  17   22:40   34.8    50    0.9   317      2.5   934.1    0.00       0    51.5
  17   22:50   34.4    51    0.6   320      1.7   934.1    0.00       0    51.4
  17   23:00   34.2    52    0.2   332      0.9   934.1    0.00       0    51.3
  17   23:10   33.8    52    1.0   323      2.8   934.1    0.00       0    51.2
  17   23:20   33.8    52    0.5   325      1.3   934.0    0.00       0    51.1
  17   23:30   33.8    52    0.1   324      0.7   933.9    0.00       0    51.0
  17   23:40   33.3    53    0.8   324      2.1   933.8    0.00       0    50.9

Return to Amargosa Valley, Nevada graphs page.


Western Regional Climate Center,wrcc@dri.edu